createdAt,value
2023-01-23T00:01:33.441Z,50.55
2023-01-23T00:04:01.068Z,54.60
2023-01-23T00:06:28.716Z,55.25
2023-01-23T00:08:56.979Z,53.10
2023-01-23T00:11:28.613Z,57.13
2023-01-23T00:13:57.377Z,53.40
2023-01-23T00:16:26.849Z,59.00
2023-01-23T00:18:54.362Z,56.53
2023-01-23T00:21:24.258Z,49.75
2023-01-23T00:23:56.253Z,51.67
2023-01-23T00:26:25.834Z,56.53
2023-01-23T00:28:54.683Z,55.70
2023-01-23T00:31:25.374Z,55.63
2023-01-23T00:33:58.460Z,57.15
2023-01-23T00:36:31.352Z,55.58
2023-01-23T00:38:58.716Z,59.72
2023-01-23T00:41:26.115Z,62.40
2023-01-23T00:43:56.278Z,61.47
2023-01-23T00:46:23.670Z,61.88
2023-01-23T00:48:51.527Z,58.47
2023-01-23T00:51:18.978Z,57.17
2023-01-23T00:53:49.915Z,60.30
2023-01-23T00:56:17.063Z,58.85
2023-01-23T00:58:45.347Z,54.80
2023-01-23T01:01:14.451Z,63.65
2023-01-23T01:03:42.272Z,60.90
2023-01-23T01:06:10.634Z,61.38
2023-01-23T01:08:40.216Z,61.22
2023-01-23T01:11:07.833Z,65.20
2023-01-23T01:13:37.804Z,62.13
2023-01-23T01:16:08.217Z,61.50
2023-01-23T01:18:36.622Z,59.17
2023-01-23T01:21:14.420Z,63.03
2023-01-23T01:23:42.013Z,59.72
2023-01-23T01:26:09.716Z,66.68
2023-01-23T01:28:39.419Z,60.00
2023-01-23T01:31:17.076Z,69.25
2023-01-23T01:33:45.253Z,66.55
2023-01-23T01:36:14.980Z,65.40
2023-01-23T01:38:42.697Z,74.63
2023-01-23T01:41:12.251Z,73.07
2023-01-23T01:43:39.608Z,67.95
2023-01-23T01:46:20.609Z,65.88
2023-01-23T01:48:57.126Z,66.95
2023-01-23T01:51:34.440Z,70.47
2023-01-23T01:54:10.698Z,72.55
2023-01-23T01:56:43.293Z,66.63
2023-01-23T01:59:12.187Z,62.58
2023-01-23T02:01:41.612Z,72.15
2023-01-23T02:04:09.753Z,77.32
2023-01-23T02:06:36.928Z,68.28
2023-01-23T02:09:12.908Z,71.70
2023-01-23T02:11:40.075Z,70.57
2023-01-23T02:14:07.681Z,70.60
2023-01-23T02:16:41.076Z,74.55
2023-01-23T02:19:27.603Z,71.47
2023-01-23T02:22:06.373Z,70.63
2023-01-23T02:24:43.098Z,64.60
2023-01-23T02:27:12.451Z,67.45
2023-01-23T02:29:42.179Z,71.28
2023-01-23T02:32:10.435Z,64.70
2023-01-23T02:34:38.849Z,74.68
2023-01-23T02:37:09.299Z,75.20
2023-01-23T02:39:37.542Z,69.22
2023-01-23T02:42:07.611Z,72.40
2023-01-23T02:44:53.936Z,65.82
2023-01-23T02:47:24.537Z,72.88
2023-01-23T02:49:52.189Z,73.53
2023-01-23T02:52:19.451Z,69.20
2023-01-23T02:54:47.622Z,67.63
2023-01-23T02:57:15.656Z,67.13
2023-01-23T03:00:01.499Z,63.40
2023-01-23T03:02:30.066Z,60.65
2023-01-23T03:04:57.354Z,58.10
2023-01-23T03:07:29.897Z,61.83
2023-01-23T03:09:57.319Z,61.78
2023-01-23T03:12:24.355Z,58.50
2023-01-23T03:14:56.535Z,58.25
2023-01-23T03:17:24.153Z,63.45
2023-01-23T03:19:52.865Z,63.90
2023-01-23T03:22:20.141Z,57.50
2023-01-23T03:24:47.599Z,59.28
2023-01-23T03:27:14.909Z,57.70
2023-01-23T03:30:05.749Z,52.30
2023-01-23T03:32:32.975Z,56.33
2023-01-23T03:35:00.471Z,63.00
2023-01-23T03:37:30.341Z,61.47
2023-01-23T03:40:16.931Z,56.67
2023-01-23T03:42:44.015Z,57.70
2023-01-23T03:45:14.683Z,59.28
2023-01-23T03:47:42.746Z,60.28
2023-01-23T03:50:10.301Z,54.83
2023-01-23T03:52:39.613Z,61.45
2023-01-23T03:55:07.959Z,60.70
2023-01-23T03:57:38.697Z,62.38
2023-01-23T04:00:16.947Z,65.45
2023-01-23T04:02:50.517Z,56.85
2023-01-23T04:05:19.079Z,62.15
2023-01-23T04:07:46.187Z,62.03
2023-01-23T04:10:17.012Z,71.90
2023-01-23T04:12:49.008Z,66.72
2023-01-23T04:15:16.583Z,68.80
2023-01-23T04:17:44.457Z,61.70
2023-01-23T04:20:13.645Z,71.50
2023-01-23T04:22:42.628Z,65.03
2023-01-23T04:25:10.382Z,62.58
2023-01-23T04:27:37.555Z,64.00
2023-01-23T04:30:06.307Z,57.22
2023-01-23T04:32:35.133Z,56.33
2023-01-23T04:35:03.233Z,56.42
2023-01-23T04:37:31.088Z,62.03
2023-01-23T04:39:59.583Z,64.43
2023-01-23T04:42:28.878Z,55.80
2023-01-23T04:45:04.287Z,58.53
2023-01-23T04:47:34.342Z,52.85
2023-01-23T04:50:05.010Z,57.03
2023-01-23T04:52:35.400Z,65.25
2023-01-23T04:55:06.759Z,56.50
2023-01-23T04:57:34.050Z,60.22
2023-01-23T05:00:13.714Z,56.90
2023-01-23T05:02:40.980Z,54.42
2023-01-23T05:05:09.225Z,51.03
2023-01-23T05:07:40.261Z,53.75
2023-01-23T05:10:10.921Z,51.83
2023-01-23T05:16:09.278Z,56.65
2023-01-23T05:18:56.757Z,58.28
2023-01-23T05:21:26.716Z,52.65
2023-01-23T05:23:54.703Z,61.58
2023-01-23T05:26:22.263Z,50.53
2023-01-23T05:28:49.656Z,46.90
2023-01-23T05:31:16.784Z,45.17
2023-01-23T05:33:58.606Z,46.92
2023-01-23T05:36:25.793Z,44.03
2023-01-23T05:38:57.715Z,46.92
2023-01-23T05:41:28.445Z,42.87
2023-01-23T05:44:35.260Z,49.45
2023-01-23T05:47:11.818Z,47.03
2023-01-23T05:49:39.111Z,49.95
2023-01-23T05:52:06.439Z,47.95
2023-01-23T05:54:34.409Z,52.40
2023-01-23T05:57:01.479Z,45.38
2023-01-23T05:59:47.393Z,45.42
2023-01-23T06:02:35.218Z,50.38
2023-01-23T06:05:08.989Z,43.65
2023-01-23T06:07:58.297Z,42.72
2023-01-23T06:10:26.058Z,43.10
2023-01-23T06:12:53.096Z,41.95
2023-01-23T06:15:25.377Z,43.40
2023-01-23T06:17:57.281Z,43.92
2023-01-23T06:20:26.027Z,46.63
2023-01-23T06:22:53.025Z,44.13
2023-01-23T06:25:22.089Z,41.03
2023-01-23T06:27:49.895Z,40.53
2023-01-23T06:30:17.925Z,36.60
2023-01-23T06:32:46.965Z,39.22
2023-01-23T06:35:18.480Z,39.47
2023-01-23T06:37:49.461Z,36.90
2023-01-23T06:40:22.759Z,40.80
2023-01-23T06:43:02.332Z,33.92
2023-01-23T06:45:29.925Z,38.17
2023-01-23T06:47:58.074Z,35.42
2023-01-23T06:50:27.734Z,35.30
2023-01-23T06:52:54.904Z,37.78
2023-01-23T06:55:23.063Z,39.08
2023-01-23T06:57:50.200Z,34.33
2023-01-23T07:00:19.513Z,35.55
2023-01-23T07:02:47.113Z,30.83
2023-01-23T07:05:14.814Z,34.35
2023-01-23T07:07:45.898Z,33.55
2023-01-23T07:10:13.558Z,35.83
2023-01-23T07:12:40.642Z,37.10
2023-01-23T07:15:09.620Z,37.35
2023-01-23T07:17:40.485Z,36.00
2023-01-23T07:20:08.996Z,36.40
2023-01-23T07:22:41.319Z,37.88
2023-01-23T07:25:08.996Z,32.67
2023-01-23T07:27:36.135Z,32.67
2023-01-23T07:30:06.465Z,36.47
2023-01-23T07:32:33.515Z,35.60
2023-01-23T07:35:01.103Z,38.50
2023-01-23T07:37:29.339Z,36.08
2023-01-23T07:39:57.544Z,39.55
2023-01-23T07:42:24.658Z,34.20
2023-01-23T07:44:53.754Z,37.15
2023-01-23T07:47:23.702Z,36.00
2023-01-23T07:49:50.944Z,36.78
2023-01-23T07:52:18.329Z,38.53
2023-01-23T07:54:47.662Z,37.45
2023-01-23T07:57:17.504Z,35.50
2023-01-23T07:59:44.547Z,36.00
2023-01-23T08:02:11.854Z,36.25
2023-01-23T08:04:39.038Z,35.00
2023-01-23T08:07:06.689Z,38.15
2023-01-23T08:09:33.766Z,37.03
2023-01-23T08:12:01.105Z,36.50
2023-01-23T08:14:30.415Z,34.00
2023-01-23T08:17:01.666Z,40.42
2023-01-23T08:19:28.827Z,32.20
2023-01-23T08:21:59.280Z,33.90
2023-01-23T08:24:28.481Z,36.85
2023-01-23T08:27:00.322Z,34.95
2023-01-23T08:29:28.126Z,37.83
2023-01-23T08:31:55.602Z,39.10
2023-01-23T08:34:24.140Z,38.45
2023-01-23T08:36:51.692Z,38.55
2023-01-23T08:39:21.231Z,35.53
2023-01-23T08:41:48.602Z,68.35
2023-01-23T08:44:15.635Z,44.70
2023-01-23T08:46:45.994Z,41.25
2023-01-23T08:49:13.485Z,42.80
2023-01-23T08:51:43.067Z,44.88
2023-01-23T08:54:10.262Z,37.67
2023-01-23T08:56:37.668Z,40.90
2023-01-23T08:59:04.750Z,43.60
2023-01-23T09:01:32.124Z,44.20
2023-01-23T09:03:59.187Z,50.25
2023-01-23T09:06:28.956Z,45.47
2023-01-23T09:08:56.091Z,41.80
2023-01-23T09:11:23.956Z,42.88
2023-01-23T09:13:53.798Z,45.17
2023-01-23T09:16:21.867Z,45.42
2023-01-23T09:18:49.012Z,41.72
2023-01-23T09:21:17.751Z,42.88
2023-01-23T09:23:45.725Z,49.10
2023-01-23T09:26:18.150Z,44.95
2023-01-23T09:28:46.779Z,46.53
2023-01-23T09:31:14.516Z,45.50
2023-01-23T09:33:42.392Z,50.08
2023-01-23T09:36:10.199Z,46.78
2023-01-23T09:38:37.205Z,41.70
2023-01-23T09:41:19.466Z,46.53
2023-01-23T09:43:59.320Z,50.95
2023-01-23T09:46:33.193Z,42.15
2023-01-23T09:49:11.183Z,41.55
2023-01-23T09:51:38.579Z,47.38
2023-01-23T09:54:13.881Z,40.67
2023-01-23T09:59:10.677Z,40.97
2023-01-23T10:01:38.278Z,43.03
2023-01-23T10:04:05.998Z,42.55
2023-01-23T10:07:06.670Z,47.85
2023-01-23T10:10:18.790Z,43.35
2023-01-23T10:13:03.490Z,42.08
2023-01-23T10:15:30.521Z,32.35
2023-01-23T10:18:26.704Z,38.45
2023-01-23T10:21:02.479Z,38.90
2023-01-23T10:23:54.279Z,41.42
2023-01-23T10:26:31.622Z,38.67
2023-01-23T10:29:14.145Z,39.03
2023-01-23T10:31:53.988Z,37.85
2023-01-23T10:34:34.481Z,41.05
2023-01-23T10:37:17.076Z,34.63
2023-01-23T10:40:10.430Z,37.97
2023-01-23T10:42:37.397Z,33.97
2023-01-23T10:45:06.411Z,35.38
2023-01-23T10:47:44.049Z,33.83
2023-01-23T10:50:11.786Z,38.72
2023-01-23T10:52:42.398Z,33.28
2023-01-23T10:55:21.405Z,32.90
2023-01-23T10:57:53.252Z,32.42
2023-01-23T11:00:34.095Z,29.52
2023-01-23T11:03:20.122Z,27.55
2023-01-23T11:05:53.562Z,29.48
2023-01-23T11:08:31.273Z,29.38
2023-01-23T11:11:16.109Z,25.52
2023-01-23T11:13:48.686Z,32.47
2023-01-23T11:16:19.811Z,31.50
2023-01-23T11:19:09.100Z,32.15
2023-01-23T11:21:57.590Z,28.67
2023-01-23T11:24:40.373Z,33.55
2023-01-23T11:27:20.366Z,24.33
2023-01-23T11:30:09.300Z,25.63
2023-01-23T11:32:58.685Z,30.00
2023-01-23T11:36:12.066Z,27.65
2023-01-23T11:38:52.519Z,24.83
2023-01-23T11:41:27.003Z,24.13
2023-01-23T11:43:54.385Z,29.63
2023-01-23T11:46:27.574Z,24.25
2023-01-23T11:49:39.722Z,26.55
2023-01-23T11:52:17.996Z,26.27
2023-01-23T11:55:04.087Z,25.98
2023-01-23T11:57:54.370Z,29.30
2023-01-23T12:00:54.666Z,26.17
2023-01-23T12:03:40.392Z,24.75
2023-01-23T12:06:20.448Z,25.35
2023-01-23T12:08:53.731Z,28.92
2023-01-23T12:14:00.900Z,24.40
2023-01-23T12:16:39.875Z,24.45
2023-01-23T12:19:16.153Z,27.13
2023-01-23T12:21:57.844Z,26.52
2023-01-23T12:24:54.171Z,22.23
2023-01-23T12:27:34.428Z,25.70
2023-01-23T12:30:25.383Z,24.42
2023-01-23T12:33:01.241Z,27.00
2023-01-23T12:35:50.795Z,25.60
2023-01-23T12:38:29.472Z,23.77
2023-01-23T12:41:06.541Z,20.85
2023-01-23T12:43:55.079Z,23.58
2023-01-23T12:46:39.681Z,25.13
2023-01-23T12:49:25.421Z,23.50
2023-01-23T12:52:17.900Z,26.27
2023-01-23T12:54:53.670Z,21.98
2023-01-23T12:57:52.827Z,23.23
2023-01-23T13:00:53.533Z,25.17
2023-01-23T13:03:44.958Z,21.33
2023-01-23T13:06:34.937Z,23.88
2023-01-23T13:09:29.176Z,23.60
2023-01-23T13:12:08.834Z,23.42
2023-01-23T13:15:06.499Z,24.52
2023-01-23T13:17:49.391Z,21.70
2023-01-23T13:20:38.134Z,22.63
2023-01-23T13:23:26.438Z,24.33
2023-01-23T13:26:12.436Z,19.45
2023-01-23T13:31:26.863Z,19.73
2023-01-23T13:34:06.654Z,25.70
2023-01-23T13:36:37.858Z,26.88
2023-01-23T13:39:22.052Z,21.75
2023-01-23T13:42:12.805Z,26.15
2023-01-23T13:45:21.493Z,21.80
2023-01-23T14:25:42.655Z,20.20
2023-01-23T14:28:16.797Z,22.90
2023-01-23T14:30:55.592Z,20.67
2023-01-23T14:33:23.413Z,20.67
2023-01-23T14:35:53.377Z,20.92
2023-01-23T14:38:29.259Z,21.75
2023-01-23T14:40:58.946Z,21.35
2023-01-23T14:43:29.180Z,20.60
2023-01-23T14:46:14.013Z,20.48
2023-01-23T14:48:47.356Z,20.83
2023-01-23T14:51:26.169Z,22.60
2023-01-23T14:54:01.614Z,27.77
2023-01-23T14:56:36.864Z,22.80
2023-01-23T14:59:07.262Z,15.57
2023-01-23T15:01:36.007Z,21.60
2023-01-23T15:04:06.425Z,21.73
2023-01-23T15:06:35.910Z,25.50
2023-01-23T15:09:09.103Z,28.25
2023-01-23T15:11:39.520Z,25.27
2023-01-23T15:14:22.449Z,23.02
2023-01-23T15:16:51.883Z,23.20
2023-01-23T15:19:27.028Z,26.00
2023-01-23T15:22:28.019Z,24.52
2023-01-23T15:24:56.068Z,21.95
2023-01-23T15:27:33.978Z,19.33
2023-01-23T15:30:29.095Z,24.92
2023-01-23T15:32:58.070Z,21.77
2023-01-23T15:35:25.720Z,21.27
2023-01-23T15:37:59.665Z,23.85
2023-01-23T15:40:28.160Z,28.88
2023-01-23T15:43:18.831Z,24.42
2023-01-23T15:45:47.055Z,25.33
2023-01-23T15:48:17.040Z,30.35
2023-01-23T15:50:44.106Z,25.83
2023-01-23T15:53:13.727Z,22.05
2023-01-23T15:55:44.046Z,19.90
2023-01-23T15:58:17.213Z,22.38
2023-01-23T16:00:44.476Z,22.30
2023-01-23T16:03:14.815Z,24.20
2023-01-23T16:05:42.206Z,22.20
2023-01-23T16:08:20.907Z,21.73
2023-01-23T16:10:50.531Z,20.45
2023-01-23T16:13:17.968Z,20.25
2023-01-23T16:15:45.342Z,20.33
2023-01-23T16:18:15.072Z,18.73
2023-01-23T16:20:45.359Z,19.60
2023-01-23T16:23:31.234Z,21.13
2023-01-23T16:26:03.009Z,24.30
2023-01-23T16:28:32.510Z,20.67
2023-01-23T16:30:59.667Z,24.20
2023-01-23T16:33:31.937Z,22.63
2023-01-23T16:35:59.134Z,23.02
2023-01-23T16:38:29.041Z,21.98
2023-01-23T16:40:59.646Z,20.80
2023-01-23T16:43:27.579Z,22.02
2023-01-23T16:45:56.928Z,23.80
2023-01-23T16:48:28.510Z,24.80
2023-01-23T16:51:05.164Z,24.30
2023-01-23T16:53:41.024Z,23.38
2023-01-23T16:56:21.836Z,24.90
2023-01-23T16:58:50.545Z,24.98
2023-01-23T17:01:23.686Z,22.95
2023-01-23T17:04:03.942Z,20.50
2023-01-23T17:06:33.260Z,24.23
2023-01-23T17:09:01.618Z,21.00
2023-01-23T17:12:12.666Z,24.00
2023-01-23T17:14:42.842Z,21.15
2023-01-23T17:17:17.357Z,23.50
2023-01-23T17:19:47.328Z,21.45
2023-01-23T17:22:27.896Z,25.38
2023-01-23T17:24:55.839Z,26.17
2023-01-23T17:27:23.137Z,23.30
2023-01-23T17:29:50.993Z,23.73
2023-01-23T17:32:27.373Z,23.00
2023-01-23T17:34:55.616Z,30.05
2023-01-23T17:37:23.711Z,27.23
2023-01-23T17:39:52.029Z,26.17
2023-01-23T17:42:19.672Z,27.67
2023-01-23T17:44:48.058Z,28.73
2023-01-23T17:47:17.090Z,31.63
2023-01-23T17:49:51.708Z,27.63
2023-01-23T17:52:22.390Z,29.17
2023-01-23T17:54:50.220Z,26.75
2023-01-23T17:57:17.682Z,27.70
2023-01-23T17:59:47.768Z,28.17
2023-01-23T18:02:30.699Z,28.88
2023-01-23T18:04:59.834Z,29.73
2023-01-23T18:07:27.863Z,28.60
2023-01-23T18:09:56.585Z,31.05
2023-01-23T18:13:03.464Z,31.15
